PWSweather.com
Personal Weather Stations
Station Observations
METEOCAST
Meteocast, CastelldefelsES 08860

MeteocastCastelldefelsES 08860

Lat: 41.27, Lon: 1.94

Elevation: 203.412

Station Type: VANTAGE PRO2

http://www.telefonica.net/web2/meteo-cast/

High Low Average
Temperature 48.9°F9.4°C 42.6°F5.9°C 46.3°F7.9°C
Dew Point 45.3°F7.4°C 36.8°F2.7°C 41.5°F5.3°C
Winds 7.0 mph 11.3 kmh Calm Calm 2.0 mph S3.2 kmh S
Wind Gusts 4.0 mph6.4 kmh 4.0 mph6.4 kmh 4.0 mph6.4 kmh
Humidity 91% 70% 84%
Pressure 30.03 in1016.9 mb 29.85 in1010.8 mb -
Precipitation 0.00 in0.0 mm - -
Hour Temp Dew Point Humidity Winds Wind Gusts Pressure Precip Precip Rate Daily Precip Total
01:03 AM 45.6°F7.6°C 36.8°F2.7°C 71% Calm Calm 4.0 mph6.4 kmh 30.03 in1016.9 mb 0.00 in0.0 mm 0.00 in/hr0.0 mm/hr 0.00 in0.0 mm
02:03 AM 44.8°F7.1°C 37.4°F3.0°C 75% Calm Calm 4.0 mph6.4 kmh 30.03 in1016.9 mb 0.00 in0.0 mm 0.00 in/hr0.0 mm/hr 0.00 in0.0 mm
03:03 AM 46.3°F7.9°C 38.8°F3.8°C 75% 1.0 mph W1.6 kmh W 4.0 mph6.4 kmh 30.01 in1016.3 mb 0.00 in0.0 mm 0.00 in/hr0.0 mm/hr 0.00 in0.0 mm
04:03 AM 48.2°F9.0°C 40.0°F4.4°C 73% Calm Calm 4.0 mph6.4 kmh 29.99 in1015.6 mb 0.00 in0.0 mm 0.00 in/hr0.0 mm/hr 0.00 in0.0 mm
05:03 AM 48.9°F9.4°C 39.6°F4.2°C 70% 2.0 mph WSW3.2 kmh WSW 4.0 mph6.4 kmh 29.98 in1015.2 mb 0.00 in0.0 mm 0.00 in/hr0.0 mm/hr 0.00 in0.0 mm
06:03 AM 47.2°F8.4°C 39.4°F4.1°C 74% Calm Calm 4.0 mph6.4 kmh 29.97 in1014.9 mb 0.00 in0.0 mm 0.00 in/hr0.0 mm/hr 0.00 in0.0 mm
08:03 AM 47.8°F8.8°C 41.9°F5.5°C 80% Calm Calm 4.0 mph6.4 kmh 29.96 in1014.6 mb 0.00 in0.0 mm 0.00 in/hr0.0 mm/hr 0.00 in0.0 mm
09:03 AM 46.9°F8.3°C 43.2°F6.2°C 87% Calm Calm 4.0 mph6.4 kmh 29.95 in1014.2 mb 0.01 in0.3 mm 0.00 in/hr0.0 mm/hr 0.01 in0.3 mm
10:03 AM 47.8°F8.8°C 45.3°F7.4°C 91% Calm Calm 4.0 mph6.4 kmh 29.94 in1013.9 mb 0.06 in1.5 mm 0.00 in/hr0.0 mm/hr 0.06 in1.5 mm
11:03 AM 47.3°F8.5°C 44.5°F6.9°C 90% Calm Calm 4.0 mph6.4 kmh 29.93 in1013.5 mb 0.01 in0.3 mm 0.00 in/hr0.0 mm/hr 0.06 in1.5 mm
12:03 PM 47.5°F8.6°C 45.0°F7.2°C 91% Calm Calm 4.0 mph6.4 kmh 29.92 in1013.2 mb 0.00 in0.0 mm 0.00 in/hr0.0 mm/hr 0.06 in1.5 mm
01:03 PM 47.3°F8.5°C 44.5°F6.9°C 90% 1.0 mph E1.6 kmh E 4.0 mph6.4 kmh 29.90 in1012.5 mb 0.00 in0.0 mm 0.00 in/hr0.0 mm/hr 0.06 in1.5 mm
02:03 PM 46.4°F8.0°C 43.3°F6.3°C 89% 3.0 mph E4.8 kmh E 4.0 mph6.4 kmh 29.87 in1011.5 mb 0.00 in0.0 mm 0.00 in/hr0.0 mm/hr 0.06 in1.5 mm
03:03 PM 46.6°F8.1°C 42.0°F5.6°C 84% 1.0 mph ENE1.6 kmh ENE 4.0 mph6.4 kmh 29.85 in1010.8 mb 0.00 in0.0 mm 0.00 in/hr0.0 mm/hr 0.06 in1.5 mm
04:03 PM 46.4°F8.0°C 42.5°F5.8°C 86% 1.0 mph NE1.6 kmh NE 4.0 mph6.4 kmh 29.85 in1010.8 mb 0.00 in0.0 mm 0.00 in/hr0.0 mm/hr 0.06 in1.5 mm
05:03 PM 45.7°F7.6°C 42.4°F5.8°C 88% 3.0 mph N4.8 kmh N 4.0 mph6.4 kmh 29.85 in1010.8 mb 0.00 in0.0 mm 0.00 in/hr0.0 mm/hr 0.06 in1.5 mm
06:03 PM 44.8°F7.1°C 42.1°F5.6°C 90% 5.0 mph ENE8.0 kmh ENE 4.0 mph6.4 kmh 29.85 in1010.8 mb 0.03 in0.8 mm 0.00 in/hr0.0 mm/hr 0.09 in2.3 mm
07:03 PM 44.3°F6.8°C 41.6°F5.3°C 90% 2.0 mph NE3.2 kmh NE 4.0 mph6.4 kmh 29.86 in1011.2 mb 0.08 in2.0 mm 0.00 in/hr0.0 mm/hr 0.14 in3.6 mm
08:03 PM 43.9°F6.6°C 41.2°F5.1°C 90% 7.0 mph ESE11.3 kmh ESE 4.0 mph6.4 kmh 29.86 in1011.2 mb 0.11 in2.8 mm 0.00 in/hr0.0 mm/hr 0.17 in4.3 mm
09:03 PM 42.6°F5.9°C 39.6°F4.2°C 89% 5.0 mph ENE8.0 kmh ENE 4.0 mph6.4 kmh 29.88 in1011.9 mb 0.08 in2.0 mm 0.00 in/hr0.0 mm/hr 0.17 in4.3 mm